Time;durP1;ratioP1;P1;durP2;ratioP2;P2;SDS_P1;SDS_P2;PMS_P1;PMS_P2;Temp;Humidity;BMP_temperature;BMP_pressure;BME280_temperature;BME280_humidity;BME280_pressure;Samples;Min_cycle;Max_cycle;Signal;HPM_P1;HPM_P2
2023/09/26 00:02:03;;;;;;;7.95;3.30;;;;;;;19.55;64.69;100555.13;7736290;32;36762;-83
2023/09/26 00:06:20;;;;;;;8.00;3.53;;;;;;;19.39;64.71;100551.91;7760596;32;39034;-81
2023/09/26 00:10:36;;;;;;;8.60;3.30;;;;;;;19.53;63.99;100549.09;7763132;32;39601;-83
2023/09/26 00:14:53;;;;;;;9.55;3.45;;;;;;;19.45;64.37;100549.84;7762979;32;38135;-83
2023/09/26 00:19:09;;;;;;;8.18;3.85;;;;;;;19.44;64.90;100543.50;7762436;32;37082;-84
2023/09/26 00:23:25;;;;;;;10.95;3.97;;;;;;;19.62;64.09;100540.84;7762676;32;39205;-84
2023/09/26 00:27:42;;;;;;;11.30;4.03;;;;;;;19.32;65.41;100537.72;7762430;32;39986;-83
2023/09/26 00:32:01;;;;;;;10.82;3.90;;;;;;;19.27;65.77;100544.16;7762853;32;37673;-81
2023/09/26 00:36:18;;;;;;;6.78;3.72;;;;;;;19.44;65.26;100539.94;7762619;32;37312;-73
2023/09/26 00:40:34;;;;;;;9.38;3.53;;;;;;;19.56;65.46;100544.88;7765008;32;39233;-82
2023/09/26 00:44:50;;;;;;;13.75;3.58;;;;;;;19.52;64.86;100539.16;7766446;32;40631;-83
2023/09/26 00:49:07;;;;;;;8.85;3.72;;;;;;;19.45;64.94;100542.34;7766339;32;38054;-84
2023/09/26 00:53:29;;;;;;;9.65;3.53;;;;;;;19.38;65.20;100541.16;7766172;32;37002;-83
2023/09/26 00:57:46;;;;;;;11.60;4.22;;;;;;;19.35;65.54;100539.84;7766420;32;38213;-84
2023/09/26 01:02:02;;;;;;;8.95;4.30;;;;;;;19.40;65.21;100534.19;7763834;32;40021;-83
2023/09/26 01:06:18;;;;;;;10.63;3.92;;;;;;;19.13;65.88;100540.62;7739268;32;37928;-83
2023/09/26 01:10:35;;;;;;;10.50;4.00;;;;;;;19.11;65.57;100538.19;7739482;32;36799;-83
2023/09/26 01:14:52;;;;;;;11.52;3.97;;;;;;;19.29;64.74;100543.84;7738756;32;39301;-83
2023/09/26 01:19:08;;;;;;;13.13;4.95;;;;;;;19.30;64.43;100545.50;7739260;32;39765;-81
2023/09/26 01:23:26;;;;;;;10.05;5.00;;;;;;;19.25;64.87;100534.56;7739080;32;37976;-83
2023/09/26 01:27:43;;;;;;;12.32;4.80;;;;;;;19.16;66.02;100533.66;7738910;32;36719;-83
2023/09/26 01:31:59;;;;;;;13.73;4.78;;;;;;;19.23;66.38;100537.63;7738913;32;39288;-84
2023/09/26 01:36:16;;;;;;;8.05;4.20;;;;;;;19.15;66.31;100532.84;7738895;32;40033;-83
2023/09/26 01:40:32;;;;;;;10.85;4.45;;;;;;;19.13;65.88;100527.63;7738752;32;38705;-83
2023/09/26 01:44:48;;;;;;;10.75;5.07;;;;;;;19.20;65.38;100529.16;7738761;32;37541;-83
2023/09/26 01:49:05;;;;;;;10.10;4.53;;;;;;;19.17;65.29;100533.34;7738518;32;39317;-83
2023/09/26 01:53:21;;;;;;;11.15;4.87;;;;;;;19.23;65.01;100532.09;7738615;32;40201;-85
2023/09/26 01:57:38;;;;;;;10.82;5.45;;;;;;;19.27;65.02;100535.87;7738590;32;38795;-83
2023/09/26 02:01:54;;;;;;;12.45;5.35;;;;;;;19.27;65.43;100535.87;7738626;32;37097;-84
2023/09/26 02:06:10;;;;;;;10.65;4.78;;;;;;;19.19;66.31;100535.81;7738533;32;38943;-83
2023/09/26 02:10:27;;;;;;;8.45;4.35;;;;;;;19.27;65.80;100526.78;7738506;32;40905;-83
2023/09/26 02:14:43;;;;;;;12.18;5.20;;;;;;;19.39;65.01;100529.00;7738317;32;37952;-83
2023/09/26 02:19:00;;;;;;;10.38;5.37;;;;;;;19.16;65.84;100530.88;7738504;32;37315;-84
2023/09/26 02:23:16;;;;;;;12.65;5.43;;;;;;;19.18;66.33;100534.16;7738307;32;39348;-83
2023/09/26 02:27:33;;;;;;;14.65;5.22;;;;;;;19.13;66.21;100535.91;7738186;32;39607;-83
2023/09/26 02:31:49;;;;;;;14.60;5.25;;;;;;;19.36;65.75;100533.19;7738190;32;38023;-82
2023/09/26 02:36:05;;;;;;;13.93;5.47;;;;;;;19.45;65.63;100536.81;7738358;32;36952;-83
2023/09/26 02:40:22;;;;;;;11.23;5.62;;;;;;;19.30;66.28;100534.44;7752082;32;39566;-83
2023/09/26 02:44:38;;;;;;;11.45;5.60;;;;;;;19.40;66.23;100534.19;7765005;32;39622;-83
2023/09/26 02:48:55;;;;;;;10.93;5.53;;;;;;;19.63;65.55;100536.97;7764962;32;37834;-82
2023/09/26 02:53:11;;;;;;;11.57;5.40;;;;;;;19.53;66.18;100532.50;7754186;32;37891;-82
2023/09/26 02:57:27;;;;;;;13.40;5.60;;;;;;;19.44;66.68;100529.66;7737972;32;39312;-83
2023/09/26 03:01:44;;;;;;;13.90;5.62;;;;;;;19.32;67.37;100534.94;7737753;32;40807;-83
2023/09/26 03:06:01;;;;;;;16.08;5.85;;;;;;;19.41;66.36;100541.34;7746055;32;37749;-82
2023/09/26 03:10:17;;;;;;;8.73;5.55;;;;;;;19.24;66.56;100536.50;7764596;32;37786;-83
2023/09/26 03:14:34;;;;;;;13.88;6.03;;;;;;;19.33;66.28;100528.28;7764576;32;39305;-83
2023/09/26 03:18:54;;;;;;;10.43;5.95;;;;;;;19.21;66.68;100537.09;7764175;32;39715;-84
2023/09/26 03:23:11;;;;;;;14.65;6.05;;;;;;;19.17;66.97;100530.56;7764143;32;38167;-82
2023/09/26 03:27:27;;;;;;;13.77;6.25;;;;;;;19.27;67.57;100546.13;7764172;32;37839;-83
2023/09/26 03:31:45;;;;;;;11.52;5.55;;;;;;;19.60;66.80;100540.34;7762324;32;39917;-84
2023/09/26 03:36:05;;;;;;;12.10;5.57;;;;;;;19.62;67.21;100543.62;7764174;32;38978;-83
2023/09/26 03:40:22;;;;;;;14.18;6.07;;;;;;;19.64;66.98;100538.59;7762985;32;38025;-83
2023/09/26 03:44:41;;;;;;;10.45;5.82;;;;;;;19.78;66.41;100539.38;7763770;32;37180;-83
2023/09/26 03:48:57;;;;;;;15.65;5.80;;;;;;;19.73;66.59;100544.19;7763612;32;39914;-84
2023/09/26 03:53:14;;;;;;;15.20;5.82;;;;;;;19.66;66.83;100547.38;7763748;32;40049;-83
2023/09/26 03:57:33;;;;;;;11.73;5.30;;;;;;;19.79;66.27;100537.44;7763546;32;38138;-83
2023/09/26 04:01:50;;;;;;;13.50;6.47;;;;;;;19.77;66.34;100543.28;7750427;32;37743;-84
2023/09/26 04:06:07;;;;;;;11.02;5.78;;;;;;;19.84;65.71;100543.62;7736329;32;39192;-83
2023/09/26 04:10:24;;;;;;;8.98;5.22;;;;;;;19.84;65.35;100543.62;7736447;32;39893;-83
2023/09/26 04:14:40;;;;;;;13.85;5.93;;;;;;;19.60;66.19;100546.69;7738024;32;38112;-84
2023/09/26 04:18:56;;;;;;;11.38;5.65;;;;;;;19.67;65.99;100547.06;7739997;32;37221;-84
2023/09/26 04:23:13;;;;;;;11.70;6.03;;;;;;;19.80;65.31;100553.72;7739668;32;39758;-82
2023/09/26 04:27:29;;;;;;;12.68;6.53;;;;;;;19.56;66.14;100544.88;7739624;32;41186;-82
2023/09/26 04:31:45;;;;;;;13.13;5.72;;;;;;;19.49;66.51;100543.38;7739991;32;37965;-84
2023/09/26 04:36:02;;;;;;;11.85;5.75;;;;;;;19.47;66.19;100545.63;7740116;32;37072;-83
2023/09/26 04:40:19;;;;;;;11.38;5.30;;;;;;;19.50;66.24;100556.06;7739844;32;38935;-83
2023/09/26 04:44:36;;;;;;;9.95;6.20;;;;;;;19.54;66.03;100566.50;7739448;32;40040;-83
2023/09/26 04:48:52;;;;;;;14.63;6.62;;;;;;;19.46;66.40;100557.81;7739538;32;38142;-84
2023/09/26 04:53:08;;;;;;;15.63;6.00;;;;;;;19.58;66.14;100562.78;7749542;32;36716;-85
2023/09/26 04:57:25;;;;;;;12.23;5.68;;;;;;;19.70;65.76;100559.47;7766474;32;40060;-82
2023/09/26 05:01:42;;;;;;;13.60;6.12;;;;;;;19.83;65.35;100561.38;7754482;32;40784;-75
2023/09/26 05:05:58;;;;;;;16.00;6.10;;;;;;;19.74;65.66;100559.66;7739126;32;37781;-70
2023/09/26 05:10:15;;;;;;;11.65;5.53;;;;;;;20.00;65.43;100557.09;7739221;32;36819;-70
2023/09/26 05:14:33;;;;;;;11.25;5.80;;;;;;;20.23;64.75;100555.91;7739842;32;39857;-73
2023/09/26 05:18:49;;;;;;;16.60;5.43;;;;;;;20.27;64.16;100556.91;7746017;32;40042;-74
2023/09/26 05:23:06;;;;;;;8.90;5.78;;;;;;;20.14;64.25;100562.53;7752127;32;38709;-72
2023/09/26 05:27:22;;;;;;;9.93;5.45;;;;;;;20.17;64.19;100562.72;7738270;32;37240;-74
2023/09/26 05:31:38;;;;;;;12.23;5.70;;;;;;;20.42;63.45;100557.59;7752649;32;39915;-74
2023/09/26 05:35:57;;;;;;;15.57;5.35;;;;;;;20.41;63.53;100556.78;7765813;32;40579;-81
2023/09/26 05:40:14;;;;;;;10.95;5.30;;;;;;;20.15;63.91;100559.44;7754327;32;38785;-81
2023/09/26 05:44:30;;;;;;;12.85;5.50;;;;;;;20.43;63.11;100556.47;7756601;32;36915;-81
2023/09/26 05:48:47;;;;;;;13.98;5.68;;;;;;;20.39;63.49;100559.06;7745308;32;39059;-81
2023/09/26 05:53:03;;;;;;;13.90;5.97;;;;;;;20.39;63.58;100566.56;7765465;32;40847;-81
2023/09/26 05:57:19;;;;;;;12.57;5.95;;;;;;;20.65;62.92;100571.44;7765416;32;38002;-80
2023/09/26 06:01:36;;;;;;;12.57;5.68;;;;;;;20.88;62.10;100564.62;7743021;32;37033;-81
2023/09/26 06:05:52;;;;;;;10.18;5.85;;;;;;;20.78;62.68;100563.00;7738266;32;39523;-82
2023/09/26 06:10:14;;;;;;;11.35;5.12;;;;;;;20.91;62.46;100565.97;7740611;32;40018;-78
2023/09/26 06:14:31;;;;;;;11.30;4.95;;;;;;;21.00;62.47;100564.81;7763748;32;38506;-78
2023/09/26 06:18:48;;;;;;;13.07;5.45;;;;;;;20.92;63.03;100564.81;7739508;32;36977;-82
2023/09/26 06:23:04;;;;;;;17.73;5.72;;;;;;;21.13;63.00;100562.25;7747368;32;39290;-81
2023/09/26 06:27:21;;;;;;;9.73;5.62;;;;;;;21.25;62.83;100567.97;7748004;32;39674;-81
2023/09/26 06:31:40;;;;;;;12.18;5.72;;;;;;;21.40;62.74;100561.09;7739947;32;38075;-82
2023/09/26 06:35:56;;;;;;;10.50;5.50;;;;;;;21.68;61.80;100560.78;7744599;32;36718;-80
2023/09/26 06:40:13;;;;;;;14.27;5.18;;;;;;;21.65;60.88;100553.97;7762661;32;39264;-81
2023/09/26 06:44:29;;;;;;;12.13;5.75;;;;;;;21.62;61.44;100560.16;7746610;32;39933;-79
2023/09/26 06:48:46;;;;;;;11.48;5.60;;;;;;;21.91;60.96;100553.91;7738809;32;38639;-79
2023/09/26 06:53:02;;;;;;;12.40;5.45;;;;;;;22.11;60.42;100555.19;7737913;32;37188;-79
2023/09/26 06:57:20;;;;;;;16.08;5.78;;;;;;;22.21;60.37;100551.19;7737825;32;39916;-79
2023/09/26 07:01:36;;;;;;;11.20;5.62;;;;;;;22.34;59.08;100554.97;7736701;32;39644;-79
2023/09/26 07:05:54;;;;;;;11.05;5.37;;;;;;;22.23;60.02;100562.81;7736907;32;38595;-79
2023/09/26 07:10:10;;;;;;;13.85;5.57;;;;;;;22.67;59.07;100560.69;7736872;32;37228;-79
2023/09/26 07:14:32;;;;;;;12.63;5.25;;;;;;;22.77;57.80;100559.50;7738768;32;40045;-80
2023/09/26 07:18:50;;;;;;;12.65;4.68;;;;;;;22.96;57.21;100559.06;7762902;32;40627;-78
2023/09/26 07:23:07;;;;;;;10.77;5.37;;;;;;;23.17;57.30;100561.88;7751254;32;38718;-81
2023/09/26 07:27:23;;;;;;;9.57;4.82;;;;;;;23.53;56.14;100557.66;7744754;32;37286;-80
2023/09/26 07:31:39;;;;;;;11.18;5.22;;;;;;;23.55;56.04;100548.97;7764315;32;40019;-78
2023/09/26 07:35:56;;;;;;;10.07;5.35;;;;;;;23.66;55.56;100552.94;7763194;32;40037;-81
2023/09/26 07:40:12;;;;;;;8.43;4.82;;;;;;;23.93;54.70;100554.34;7751543;32;38062;-80
2023/09/26 07:44:29;;;;;;;9.55;4.78;;;;;;;23.97;54.13;100560.88;7767569;32;37474;-80
2023/09/26 07:48:45;;;;;;;10.02;5.47;;;;;;;24.25;53.52;100557.47;7774989;32;40029;-85
2023/09/26 07:53:06;;;;;;;17.30;5.87;;;;;;;24.33;53.35;100559.31;7777319;32;40924;-83
2023/09/26 07:57:22;;;;;;;15.05;5.43;;;;;;;24.34;53.81;100563.72;7752630;32;37718;-81
2023/09/26 08:01:39;;;;;;;11.50;5.28;;;;;;;24.74;52.93;100551.12;7745189;32;37555;-80
2023/09/26 08:06:06;;;;;;;11.48;5.30;;;;;;;25.04;51.32;100560.03;7753364;32;39292;-80
2023/09/26 08:10:22;;;;;;;12.20;5.10;;;;;;;25.09;50.71;100562.59;7754915;32;41909;-78
2023/09/26 08:14:39;;;;;;;12.25;5.18;;;;;;;25.37;49.88;100558.22;7762648;32;38710;-73
2023/09/26 08:18:55;;;;;;;9.75;4.82;;;;;;;25.59;49.06;100566.06;7751125;32;37821;-80
2023/09/26 08:23:11;;;;;;;11.15;5.45;;;;;;;25.25;48.07;100559.03;7766352;32;39876;-81
2023/09/26 08:27:28;;;;;;;14.43;5.28;;;;;;;25.50;48.11;100557.03;7765857;32;40761;-81
2023/09/26 08:31:44;;;;;;;12.55;5.32;;;;;;;25.17;49.10;100560.81;7765821;32;38567;-81
2023/09/26 08:36:01;;;;;;;12.13;5.25;;;;;;;25.64;47.96;100548.25;7763737;32;36738;-80
2023/09/26 08:40:18;;;;;;;10.18;4.85;;;;;;;26.01;47.28;100553.69;7765845;32;39182;-80
2023/09/26 08:44:35;;;;;;;9.23;4.70;;;;;;;26.02;46.02;100552.50;7765072;32;39809;-81
2023/09/26 08:48:54;;;;;;;10.55;4.80;;;;;;;26.18;46.07;100547.75;7766476;32;38778;-81
2023/09/26 08:53:11;;;;;;;14.30;4.95;;;;;;;26.32;46.38;100546.47;7766457;32;37176;-81
2023/09/26 08:57:28;;;;;;;8.43;5.05;;;;;;;26.49;45.67;100548.94;7766259;32;39967;-82
2023/09/26 09:01:44;;;;;;;12.98;4.65;;;;;;;26.74;46.31;100540.34;7764345;32;40921;-81
2023/09/26 09:06:00;;;;;;;10.45;4.80;;;;;;;26.98;45.21;100536.50;7764834;32;37679;-81
2023/09/26 09:10:17;;;;;;;16.98;5.43;;;;;;;26.90;44.65;100534.72;7766083;32;37675;-82
2023/09/26 09:14:35;;;;;;;9.88;4.50;;;;;;;27.12;44.96;100539.59;7766006;32;39227;-82
2023/09/26 09:18:57;;;;;;;9.40;5.10;;;;;;;27.29;44.79;100538.41;7766101;32;38891;-82
2023/09/26 09:23:15;;;;;;;10.63;5.00;;;;;;;27.31;43.94;100530.44;7765864;32;38044;-81
2023/09/26 09:27:34;;;;;;;10.05;4.87;;;;;;;27.58;43.25;100536.19;7765689;32;36835;-82
2023/09/26 09:31:52;;;;;;;12.15;4.90;;;;;;;27.76;43.60;100528.13;7765823;32;39816;-81
2023/09/26 09:36:12;;;;;;;9.52;4.43;;;;;;;27.91;42.74;100534.81;7765628;32;40851;-82
2023/09/26 09:40:31;;;;;;;12.73;4.70;;;;;;;27.74;43.30;100524.91;7765600;32;37713;-81
2023/09/26 09:44:47;;;;;;;12.48;4.80;;;;;;;28.19;42.67;100523.34;7765690;32;36912;-82
2023/09/26 09:49:06;;;;;;;16.37;5.12;;;;;;;28.56;40.60;100517.16;7765633;32;39283;-81
2023/09/26 09:53:24;;;;;;;10.55;5.18;;;;;;;28.31;40.49;100519.53;7765703;32;39938;-82
2023/09/26 09:57:45;;;;;;;10.80;4.82;;;;;;;28.15;41.64;100510.44;7765500;32;37887;-81
2023/09/26 10:02:03;;;;;;;8.35;4.60;;;;;;;28.27;40.40;100507.47;7764393;32;37704;-82
2023/09/26 10:06:20;;;;;;;7.20;4.28;;;;;;;28.77;38.80;100496.22;7764107;32;39294;-82
2023/09/26 10:10:36;;;;;;;12.37;4.55;;;;;;;28.60;38.17;100497.59;7765418;32;40168;-81
2023/09/26 10:14:56;;;;;;;10.00;4.30;;;;;;;29.06;37.33;100497.41;7765243;32;37866;-81
2023/09/26 10:19:12;;;;;;;10.20;4.53;;;;;;;29.24;36.63;100483.66;7765502;32;36775;-82
2023/09/26 10:23:29;;;;;;;21.75;4.53;;;;;;;29.25;37.26;100481.63;7765298;32;40086;-81
2023/09/26 10:27:50;;;;;;;14.60;4.50;;;;;;;29.59;36.65;100477.63;7764876;32;40108;-81
2023/09/26 10:32:34;;;;;;;13.38;4.80;;;;;;;29.65;35.70;100461.25;7764785;32;39196;-81
2023/09/26 10:36:53;;;;;;;11.35;4.90;;;;;;;29.53;35.22;100479.16;7765083;32;36719;-78
2023/09/26 10:41:09;;;;;;;10.35;4.45;;;;;;;29.72;34.76;100466.12;7765195;32;38319;-80
2023/09/26 10:45:25;;;;;;;10.88;4.60;;;;;;;30.00;34.82;100459.19;7764747;32;39935;-82
2023/09/26 10:49:43;;;;;;;10.80;4.62;;;;;;;30.36;34.23;100456.69;7764972;32;38072;-82
2023/09/26 10:54:00;;;;;;;7.30;4.57;;;;;;;30.16;33.86;100451.25;7765080;32;37084;-81
2023/09/26 10:58:20;;;;;;;10.13;4.68;;;;;;;30.62;32.98;100456.44;7764790;32;39457;-80
2023/09/26 11:02:38;;;;;;;9.50;4.20;;;;;;;30.68;32.67;100446.44;7764749;32;42167;-81
2023/09/26 11:06:59;;;;;;;14.60;4.80;;;;;;;31.05;32.90;100456.69;7764567;32;37928;-81
2023/09/26 11:11:18;;;;;;;15.00;4.40;;;;;;;31.54;32.24;100448.00;7764458;32;37120;-81
2023/09/26 11:15:36;;;;;;;10.05;4.30;;;;;;;31.67;30.86;100439.97;7764552;32;39000;-81
2023/09/26 11:20:17;;;;;;;16.67;5.05;;;;;;;31.92;31.15;100437.97;7763294;32;39064;-81
2023/09/26 11:24:32;;;;;;;12.45;4.47;;;;;;;32.30;29.16;100438.38;7763330;32;38510;-81
2023/09/26 11:28:50;;;;;;;10.48;4.12;;;;;;;32.23;28.27;100434.78;7764161;32;36889;-81
2023/09/26 11:33:06;;;;;;;11.38;4.37;;;;;;;32.25;29.23;100429.53;7762802;32;40024;-82
2023/09/26 11:37:23;;;;;;;6.70;4.07;;;;;;;32.07;30.18;100424.72;7763823;32;39698;-82
2023/09/26 11:41:39;;;;;;;9.63;3.90;;;;;;;32.48;28.29;100424.25;7763738;32;38686;-83
2023/09/26 11:46:05;;;;;;;10.15;4.50;;;;;;;32.53;28.12;100417.38;7763686;32;37032;-82
2023/09/26 11:50:22;;;;;;;13.40;4.12;;;;;;;33.06;27.69;100409.94;7763577;32;39229;-82
2023/09/26 11:54:39;;;;;;;7.43;4.07;;;;;;;33.28;27.10;100417.09;7763383;32;39914;-80
2023/09/26 11:58:55;;;;;;;9.80;4.20;;;;;;;32.91;27.68;100407.19;7763337;32;38685;-81
2023/09/26 12:03:12;;;;;;;9.15;4.65;;;;;;;32.23;28.91;100401.72;7763316;32;37045;-82
2023/09/26 12:07:28;;;;;;;8.75;4.43;;;;;;;33.28;27.01;100408.62;7763224;32;38951;-81
2023/09/26 12:11:49;;;;;;;9.27;4.10;;;;;;;33.60;25.51;100393.50;7763101;32;39715;-82
2023/09/26 12:16:06;;;;;;;10.75;4.07;;;;;;;33.65;25.34;100384.56;7763007;32;38757;-82
2023/09/26 12:20:24;;;;;;;17.35;4.37;;;;;;;33.44;25.16;100391.19;7762843;32;37075;-82
2023/09/26 12:24:41;;;;;;;11.57;4.32;;;;;;;33.37;25.56;100390.41;7762655;32;39320;-81
2023/09/26 12:28:57;;;;;;;11.15;3.90;;;;;;;33.59;23.92;100374.12;7762447;32;40164;-84
2023/09/26 12:33:14;;;;;;;7.53;3.58;;;;;;;33.23;24.16;100380.00;7762348;32;38044;-84
2023/09/26 12:37:30;;;;;;;9.07;3.42;;;;;;;32.96;23.18;100371.25;7766493;32;37732;-84
2023/09/26 12:41:46;;;;;;;7.85;3.70;;;;;;;33.68;23.73;100372.47;7768274;32;38969;-84
2023/09/26 12:46:03;;;;;;;12.35;3.33;;;;;;;33.61;22.45;100363.19;7767605;32;40042;-85
2023/09/26 12:50:19;;;;;;;11.15;4.07;;;;;;;33.65;22.03;100355.47;7766390;32;38736;-85
2023/09/26 12:54:36;;;;;;;14.75;4.65;;;;;;;33.41;22.22;100368.59;7766028;32;36994;-84
2023/09/26 12:58:52;;;;;;;7.20;3.35;;;;;;;33.38;21.87;100372.25;7766141;32;38857;-83
2023/09/26 13:03:09;;;;;;;12.88;3.67;;;;;;;32.89;22.34;100361.63;7766154;32;40639;-83
2023/09/26 13:07:25;;;;;;;10.85;3.67;;;;;;;33.00;23.10;100357.94;7755130;32;38187;-83
2023/09/26 13:11:42;;;;;;;6.93;3.30;;;;;;;33.44;23.05;100351.63;7752505;32;37083;-84
2023/09/26 13:16:00;;;;;;;8.52;3.50;;;;;;;34.13;22.31;100339.72;7751012;32;39867;-83
2023/09/26 13:20:16;;;;;;;12.70;4.00;;;;;;;34.52;21.31;100333.62;7749629;32;40840;-85
2023/09/26 13:24:32;;;;;;;8.65;3.50;;;;;;;34.40;20.63;100343.47;7751734;32;37698;-84
2023/09/26 13:28:49;;;;;;;6.37;3.00;;;;;;;33.98;20.84;100330.56;7754289;32;37529;-85
2023/09/26 13:33:05;;;;;;;15.50;4.07;;;;;;;34.68;21.60;100333.00;7756219;32;39332;-83
2023/09/26 13:37:21;;;;;;;6.45;3.10;;;;;;;34.77;20.10;100335.34;7750784;32;40759;-84
2023/09/26 13:41:38;;;;;;;9.18;3.55;;;;;;;34.87;18.41;100340.06;7750559;32;37884;-84
2023/09/26 13:45:56;;;;;;;8.50;3.20;;;;;;;34.98;18.60;100331.44;7752012;32;36854;-85
2023/09/26 13:50:12;;;;;;;13.57;3.60;;;;;;;34.90;19.98;100330.72;7738517;32;39234;-83
2023/09/26 13:54:33;;;;;;;10.90;3.62;;;;;;;34.82;18.89;100345.41;7738761;32;39990;-83
2023/09/26 13:58:50;;;;;;;8.48;3.08;;;;;;;35.07;19.07;100328.87;7737916;32;38668;-83
2023/09/26 14:03:06;;;;;;;7.37;3.70;;;;;;;35.40;18.33;100329.19;7758849;32;37041;-82
2023/09/26 14:07:22;;;;;;;7.15;3.03;;;;;;;35.10;18.67;100330.84;7765504;32;39438;-82
2023/09/26 14:11:38;;;;;;;8.27;3.40;;;;;;;35.17;20.25;100336.41;7765358;32;39778;-84
2023/09/26 14:15:55;;;;;;;8.65;3.50;;;;;;;35.45;20.77;100323.03;7765272;32;38753;-84
2023/09/26 14:20:12;;;;;;;7.55;3.00;;;;;;;35.21;19.99;100327.06;7765348;32;36926;-83
2023/09/26 14:24:29;;;;;;;12.32;3.87;;;;;;;35.51;18.72;100329.00;7765244;32;40126;-84
2023/09/26 14:29:01;;;;;;;10.10;2.97;;;;;;;35.51;19.26;100323.34;7765240;32;41192;-83
2023/09/26 14:33:17;;;;;;;8.43;3.10;;;;;;;35.21;18.27;100325.03;7765084;32;37871;-84
2023/09/26 14:37:35;;;;;;;10.55;3.20;;;;;;;35.30;19.05;100330.97;7765216;32;36680;-83
2023/09/26 14:41:52;;;;;;;8.77;3.17;;;;;;;35.40;19.06;100320.69;7764902;32;40034;-84
2023/09/26 14:46:09;;;;;;;9.32;3.08;;;;;;;35.24;18.20;100318.53;7764926;32;39680;-83
2023/09/26 14:50:26;;;;;;;9.75;2.95;;;;;;;35.10;17.94;100316.69;7764741;32;38132;-82
2023/09/26 14:54:42;;;;;;;14.52;3.28;;;;;;;35.10;17.81;100316.69;7765017;32;36554;-84
2023/09/26 14:59:00;;;;;;;8.30;3.40;;;;;;;34.95;18.97;100318.13;7763928;32;39474;-84
2023/09/26 15:03:17;;;;;;;4.87;2.47;;;;;;;34.68;19.19;100320.91;7764846;32;39989;-83
2023/09/26 15:07:35;;;;;;;10.32;3.50;;;;;;;34.37;19.26;100316.00;7764428;32;37968;-84
2023/09/26 15:11:52;;;;;;;16.42;3.60;;;;;;;34.26;19.69;100315.34;7764623;32;35954;-84
2023/09/26 15:16:09;;;;;;;9.65;3.50;;;;;;;34.04;20.72;100309.09;7764307;32;39276;-84
2023/09/26 15:20:25;;;;;;;7.47;3.00;;;;;;;33.73;20.51;100311.81;7764213;32;40075;-84
2023/09/26 15:24:42;;;;;;;13.32;3.35;;;;;;;33.60;20.82;100311.53;7758636;32;175587;-85
2023/09/26 15:28:59;;;;;;;11.73;3.25;;;;;;;33.47;21.15;100313.25;7764075;32;37767;-83
2023/09/26 15:33:18;;;;;;;10.88;3.50;;;;;;;32.97;21.21;100317.19;7762931;32;39185;-84
2023/09/26 15:37:34;;;;;;;10.52;3.30;;;;;;;32.85;21.34;100318.47;7764040;32;40115;-84
2023/09/26 15:41:51;;;;;;;13.48;3.40;;;;;;;32.71;21.58;100315.75;7763860;32;38130;-86
2023/09/26 15:46:08;;;;;;;9.65;3.42;;;;;;;33.14;21.56;100312.69;7763404;32;37081;-84
2023/09/26 15:50:25;;;;;;;12.82;3.37;;;;;;;32.83;22.26;100312.44;7763391;32;39502;-86
2023/09/26 15:54:42;;;;;;;12.68;3.60;;;;;;;32.81;21.71;100312.06;7748426;32;38549;-86
2023/09/26 15:58:59;;;;;;;10.73;2.85;;;;;;;32.21;22.15;100310.28;7748106;32;37626;-85
2023/09/26 16:03:16;;;;;;;8.52;3.40;;;;;;;32.50;22.17;100314.59;7743251;32;36987;-84
2023/09/26 16:07:32;;;;;;;9.43;3.67;;;;;;;32.59;22.73;100316.19;7748631;32;39343;-84
2023/09/26 16:11:50;;;;;;;9.43;4.40;;;;;;;32.34;22.87;100319.88;7751402;32;39644;-84
2023/09/26 16:16:07;;;;;;;7.82;3.22;;;;;;;32.89;22.74;100319.28;7741057;32;38093;-84
2023/09/26 16:20:25;;;;;;;9.80;3.70;;;;;;;32.82;23.26;100327.75;7739910;32;35845;-85
2023/09/26 16:24:42;;;;;;;10.57;3.45;;;;;;;32.33;24.26;100329.56;7739580;32;39178;-87
2023/09/26 16:29:01;;;;;;;12.00;3.28;;;;;;;31.47;26.04;100333.25;7739624;32;39827;-84
2023/09/26 16:33:17;;;;;;;7.78;3.25;;;;;;;30.87;26.65;100340.34;7739597;32;38126;-87
2023/09/26 16:37:34;;;;;;;9.93;3.42;;;;;;;29.90;27.93;100343.44;7739664;32;37001;-85
2023/09/26 16:41:52;;;;;;;12.00;3.80;;;;;;;29.26;28.91;100346.50;7739625;32;39045;-84
2023/09/26 16:46:08;;;;;;;11.93;3.35;;;;;;;28.54;30.88;100359.63;7739332;32;39994;-85
2023/09/26 16:50:25;;;;;;;12.68;3.65;;;;;;;28.06;32.11;100360.19;7739295;32;38489;-85
2023/09/26 16:54:42;;;;;;;7.25;3.47;;;;;;;27.81;32.30;100356.94;7739368;32;37110;-86
2023/09/26 16:58:59;;;;;;;14.68;3.95;;;;;;;27.37;33.57;100360.19;7739463;32;39137;-85
2023/09/26 17:03:15;;;;;;;13.15;4.43;;;;;;;26.82;34.72;100368.75;7739731;32;40837;-85
2023/09/26 17:07:32;;;;;;;23.90;4.22;;;;;;;26.44;35.93;100370.31;7765949;32;37979;-85
2023/09/26 17:11:48;;;;;;;11.65;4.00;;;;;;;26.29;35.96;100379.53;7766176;32;37886;-86
2023/09/26 17:16:05;;;;;;;11.68;3.53;;;;;;;25.93;37.07;100384.25;7764969;32;40116;-84
2023/09/26 17:20:22;;;;;;;12.30;4.05;;;;;;;25.41;38.44;100397.28;7765441;32;39901;-85
2023/09/26 17:24:38;;;;;;;11.20;3.78;;;;;;;25.42;38.07;100394.16;7765950;32;38926;-84
2023/09/26 17:28:55;;;;;;;12.55;4.20;;;;;;;25.04;38.61;100400.22;7775637;32;36661;-85
2023/09/26 17:33:12;;;;;;;11.50;3.70;;;;;;;24.83;38.95;100408.78;7765810;32;40075;-84
2023/09/26 17:37:29;;;;;;;14.10;4.07;;;;;;;24.68;39.50;100410.34;7765731;32;40009;-83
2023/09/26 17:41:45;;;;;;;9.45;4.03;;;;;;;24.27;40.61;100406.69;7765904;32;38089;-82
2023/09/26 17:46:02;;;;;;;16.08;4.30;;;;;;;24.25;40.93;100409.81;7765764;32;37725;-81
2023/09/26 17:50:19;;;;;;;9.10;4.15;;;;;;;24.01;41.73;100421.78;7765609;32;39810;-82
2023/09/26 17:54:35;;;;;;;10.15;4.07;;;;;;;23.82;41.69;100419.56;7765529;32;40074;-84
2023/09/26 17:58:51;;;;;;;7.95;4.03;;;;;;;23.67;42.26;100423.78;7764857;32;37991;-83
2023/09/26 18:03:08;;;;;;;8.38;4.35;;;;;;;23.70;41.97;100423.09;7748867;32;36963;-83
2023/09/26 18:07:25;;;;;;;7.37;4.20;;;;;;;23.50;42.22;100424.78;7751419;32;38990;-82
2023/09/26 18:11:41;;;;;;;9.23;4.10;;;;;;;23.63;41.57;100428.41;7750355;32;40085;-83
2023/09/26 18:16:00;;;;;;;7.00;4.03;;;;;;;23.45;42.26;100425.00;7750134;32;38880;-84
2023/09/26 18:20:20;;;;;;;11.88;4.35;;;;;;;23.38;42.54;100430.31;7750495;32;37216;-84
2023/09/26 18:24:37;;;;;;;12.65;4.25;;;;;;;23.04;43.50;100433.06;7737131;32;39771;-83
2023/09/26 18:28:53;;;;;;;10.57;4.37;;;;;;;23.01;44.64;100430.97;7737249;32;40789;-83
2023/09/26 18:33:09;;;;;;;8.07;4.32;;;;;;;23.10;44.45;100425.34;7736251;32;38771;-84
2023/09/26 18:37:26;;;;;;;8.38;4.22;;;;;;;22.99;44.80;100433.28;7737271;32;36643;-83
2023/09/26 18:41:42;;;;;;;12.10;4.37;;;;;;;22.69;44.98;100438.06;7737879;32;40093;-83
2023/09/26 18:45:59;;;;;;;12.13;4.75;;;;;;;22.58;44.82;100439.63;7737587;32;40125;-81
2023/09/26 18:50:16;;;;;;;8.48;4.03;;;;;;;22.64;43.37;100441.06;7742215;32;38103;-82
2023/09/26 18:54:33;;;;;;;8.50;4.35;;;;;;;22.57;43.79;100451.88;7751408;32;37678;-80
2023/09/26 18:58:49;;;;;;;8.70;4.03;;;;;;;22.39;44.91;100454.78;7746729;32;39345;-82
2023/09/26 19:03:05;;;;;;;10.60;4.00;;;;;;;22.34;44.79;100446.63;7742840;32;39877;-82
2023/09/26 19:07:22;;;;;;;9.50;4.53;;;;;;;22.14;45.62;100453.72;7748680;32;38086;-83
2023/09/26 19:11:46;;;;;;;12.93;4.55;;;;;;;22.18;45.71;100451.09;7749643;32;36881;-82
2023/09/26 19:16:10;;;;;;;9.73;4.55;;;;;;;22.09;45.29;100463.06;7749249;32;39217;-83
2023/09/26 19:20:31;;;;;;;9.45;4.07;;;;;;;21.92;45.77;100463.13;7749960;32;39953;-81
2023/09/26 19:24:48;;;;;;;13.13;4.68;;;;;;;21.90;46.17;100470.97;7743707;32;37943;-83
2023/09/26 19:29:04;;;;;;;8.65;4.62;;;;;;;21.66;46.71;100464.03;7736024;32;37684;-84
2023/09/26 19:33:21;;;;;;;11.98;4.43;;;;;;;21.71;46.83;100463.03;7751300;32;38918;-84
2023/09/26 19:37:37;;;;;;;12.37;4.55;;;;;;;21.65;46.82;100464.37;7763626;32;39979;-85
2023/09/26 19:41:54;;;;;;;12.15;5.05;;;;;;;21.61;46.46;100469.75;7757687;32;36601;-85
2023/09/26 19:46:12;;;;;;;12.52;4.95;;;;;;;21.50;47.37;100474.00;7744974;32;38064;-86